createdAt,value
2022-12-17T00:00:24.483Z,16.85
2022-12-17T00:05:42.496Z,19.48
2022-12-17T00:10:57.639Z,18.70
2022-12-17T00:16:12.350Z,18.80
2022-12-17T00:21:27.672Z,18.23
2022-12-17T00:26:42.454Z,17.60
2022-12-17T00:31:57.736Z,17.83
2022-12-17T00:37:12.634Z,17.70
2022-12-17T00:42:27.592Z,17.65
2022-12-17T00:47:42.944Z,17.27
2022-12-17T00:52:57.825Z,14.90
2022-12-17T00:58:13.929Z,15.40
2022-12-17T01:03:31.032Z,15.20
2022-12-17T01:08:46.177Z,15.65
2022-12-17T01:14:00.964Z,17.27
2022-12-17T01:19:17.001Z,14.98
2022-12-17T01:24:31.890Z,13.30
2022-12-17T01:29:46.991Z,12.48
2022-12-17T01:35:01.857Z,14.73
2022-12-17T01:40:16.585Z,15.73
2022-12-17T01:45:32.638Z,13.38
2022-12-17T01:50:52.593Z,14.05
2022-12-17T01:56:07.648Z,13.75
2022-12-17T02:01:22.964Z,14.35
2022-12-17T02:06:47.951Z,16.42
2022-12-17T02:12:26.957Z,14.00
2022-12-17T02:17:45.816Z,13.10
2022-12-17T02:28:25.098Z,13.80
2022-12-17T02:33:40.268Z,12.98
2022-12-17T02:38:56.710Z,13.73
2022-12-17T02:44:14.055Z,13.98
2022-12-17T02:49:28.938Z,14.23
2022-12-17T02:54:48.516Z,13.35
2022-12-17T03:00:03.267Z,13.60
2022-12-17T03:05:43.582Z,12.88
2022-12-17T03:10:53.415Z,12.95
2022-12-17T03:16:08.356Z,12.90
2022-12-17T03:21:23.412Z,14.02
2022-12-17T03:26:38.263Z,16.25
2022-12-17T03:31:54.259Z,19.80
2022-12-17T03:37:09.320Z,14.02
2022-12-17T03:42:25.021Z,13.90
2022-12-17T03:47:40.019Z,15.23
2022-12-17T03:52:55.107Z,17.48
2022-12-17T03:58:10.302Z,16.45
2022-12-17T04:03:25.524Z,20.00
2022-12-17T04:08:40.578Z,19.30
2022-12-17T04:13:55.614Z,18.42
2022-12-17T04:19:10.406Z,20.88
2022-12-17T04:24:25.428Z,18.75
2022-12-17T04:29:40.395Z,17.65
2022-12-17T04:34:55.330Z,15.00
2022-12-17T04:40:10.195Z,13.48
2022-12-17T04:45:25.833Z,15.35
2022-12-17T04:50:41.169Z,14.27
2022-12-17T04:55:56.300Z,14.43
2022-12-17T05:01:11.876Z,13.60
2022-12-17T05:06:27.302Z,14.77
2022-12-17T05:11:42.364Z,14.98
2022-12-17T05:16:57.156Z,15.15
2022-12-17T05:22:11.949Z,13.95
2022-12-17T05:27:27.232Z,13.30
2022-12-17T05:32:42.698Z,20.33
2022-12-17T05:37:57.648Z,13.52
2022-12-17T05:43:20.289Z,13.25
2022-12-17T05:48:35.377Z,15.05
2022-12-17T05:53:50.710Z,17.55
2022-12-17T05:59:05.539Z,14.38
2022-12-17T06:04:20.830Z,15.50
2022-12-17T06:09:35.891Z,14.45
2022-12-17T06:14:50.766Z,17.27
2022-12-17T06:20:05.629Z,15.25
2022-12-17T06:25:20.621Z,14.57
2022-12-17T06:30:35.774Z,13.98
2022-12-17T06:35:50.563Z,16.95
2022-12-17T06:41:05.440Z,16.00
2022-12-17T06:46:20.498Z,16.63
2022-12-17T06:51:35.493Z,19.58
2022-12-17T06:56:50.559Z,16.48
2022-12-17T07:02:05.757Z,17.50
2022-12-17T07:07:20.991Z,18.00
2022-12-17T07:12:35.679Z,16.65
2022-12-17T07:17:50.742Z,15.18
2022-12-17T07:23:05.931Z,21.85
2022-12-17T07:28:21.288Z,17.58
2022-12-17T07:33:53.236Z,19.50
2022-12-17T07:39:08.585Z,17.52
2022-12-17T07:44:23.332Z,19.23
2022-12-17T07:49:38.628Z,16.40
2022-12-17T07:54:53.510Z,15.63
2022-12-17T08:00:08.476Z,18.40
2022-12-17T08:05:23.921Z,16.50
2022-12-17T08:10:39.153Z,18.20
2022-12-17T08:15:54.066Z,15.63
2022-12-17T08:21:09.316Z,15.93
2022-12-17T08:26:25.168Z,13.95
2022-12-17T08:31:41.901Z,14.63
2022-12-17T08:36:56.917Z,15.95
2022-12-17T08:42:11.998Z,15.55
2022-12-17T08:47:27.076Z,16.20
2022-12-17T08:52:42.234Z,19.20
2022-12-17T08:57:57.446Z,16.38
2022-12-17T09:03:19.370Z,16.92
2022-12-17T09:08:34.294Z,17.65
2022-12-17T09:14:09.056Z,21.20
2022-12-17T09:19:24.245Z,18.15
2022-12-17T09:24:38.965Z,18.30
2022-12-17T09:29:53.696Z,18.45
2022-12-17T09:35:08.722Z,17.20
2022-12-17T09:40:24.130Z,18.38
2022-12-17T09:45:44.936Z,17.52
2022-12-17T09:51:00.380Z,18.98
2022-12-17T09:56:16.583Z,17.02
2022-12-17T10:01:35.970Z,17.80
2022-12-17T10:06:53.906Z,16.15
2022-12-17T10:12:09.007Z,15.60
2022-12-17T10:17:31.806Z,14.88
2022-12-17T10:22:47.092Z,17.13
2022-12-17T10:28:01.817Z,16.30
2022-12-17T10:33:18.002Z,17.45
2022-12-17T10:38:59.098Z,17.95
2022-12-17T10:44:13.858Z,18.40
2022-12-17T10:49:30.913Z,16.95
2022-12-17T10:54:49.820Z,17.27
2022-12-17T11:00:05.437Z,17.77
2022-12-17T11:05:22.241Z,19.80
2022-12-17T11:11:04.572Z,20.70
2022-12-17T11:16:20.298Z,21.33
2022-12-17T11:21:50.452Z,17.00
2022-12-17T11:27:09.150Z,19.35
2022-12-17T11:32:46.510Z,18.17
2022-12-17T11:38:24.372Z,19.15
2022-12-17T11:43:54.283Z,19.20
2022-12-17T11:49:39.452Z,19.67
2022-12-17T11:55:04.724Z,18.85
2022-12-17T12:00:45.994Z,20.55
2022-12-17T12:06:15.795Z,21.08
2022-12-17T12:11:31.947Z,20.27
2022-12-17T12:16:57.766Z,19.88
2022-12-17T12:22:34.765Z,19.42
2022-12-17T12:28:10.012Z,17.95
2022-12-17T12:33:50.628Z,17.98
2022-12-17T12:39:11.540Z,20.08
2022-12-17T12:45:15.236Z,20.52
2022-12-17T12:50:56.364Z,21.08
2022-12-17T12:56:29.021Z,20.55
2022-12-17T13:01:53.471Z,21.60
2022-12-17T13:06:54.499Z,20.30
2022-12-17T13:11:59.908Z,20.17
2022-12-17T13:17:02.260Z,19.02
2022-12-17T13:22:23.682Z,18.70
2022-12-17T13:27:35.568Z,19.02
2022-12-17T13:32:43.873Z,19.05
2022-12-17T13:38:01.953Z,18.60
2022-12-17T13:42:58.758Z,19.30
2022-12-17T13:47:57.247Z,18.58
2022-12-17T13:52:54.443Z,18.60
2022-12-17T13:57:52.600Z,20.80
2022-12-17T14:02:50.113Z,23.50
2022-12-17T14:07:46.757Z,23.80
2022-12-17T14:12:43.444Z,22.88
2022-12-17T14:17:45.776Z,23.73
2022-12-17T14:22:51.442Z,23.77
2022-12-17T14:28:00.430Z,22.88
2022-12-17T14:32:58.350Z,22.83
2022-12-17T14:37:55.442Z,23.90
2022-12-17T14:42:59.429Z,23.35
2022-12-17T14:48:00.880Z,22.42
2022-12-17T14:53:00.073Z,19.42
2022-12-17T14:58:11.715Z,23.77
2022-12-17T15:03:23.468Z,21.33
2022-12-17T15:08:21.378Z,20.73
2022-12-17T15:13:17.843Z,18.90
2022-12-17T15:18:14.469Z,17.50
2022-12-17T15:23:16.319Z,20.70
2022-12-17T15:28:13.187Z,20.95
2022-12-17T15:33:10.692Z,20.58
2022-12-17T15:38:07.909Z,19.60
2022-12-17T15:43:13.615Z,17.20
2022-12-17T15:48:14.652Z,19.30
2022-12-17T15:53:11.009Z,19.13
2022-12-17T15:58:09.039Z,21.45
2022-12-17T16:03:05.733Z,18.70
2022-12-17T16:08:03.062Z,16.65
2022-12-17T16:12:59.537Z,16.50
2022-12-17T16:17:56.235Z,17.67
2022-12-17T16:22:52.630Z,17.23
2022-12-17T16:27:49.004Z,18.23
2022-12-17T16:32:45.425Z,18.58
2022-12-17T16:37:41.811Z,19.27
2022-12-17T16:42:38.269Z,18.50
2022-12-17T16:47:34.797Z,19.27
2022-12-17T16:52:31.842Z,19.48
2022-12-17T16:57:28.277Z,19.58
2022-12-17T17:02:25.269Z,17.38
2022-12-17T17:07:21.885Z,19.38
2022-12-17T17:12:18.339Z,20.05
2022-12-17T17:17:14.867Z,22.13
2022-12-17T17:22:11.295Z,21.13
2022-12-17T17:27:07.651Z,26.38
2022-12-17T17:32:13.121Z,26.10
2022-12-17T17:37:10.123Z,27.17
2022-12-17T17:42:06.534Z,23.17
2022-12-17T17:47:03.155Z,21.73
2022-12-17T17:52:09.325Z,22.35
2022-12-17T17:57:07.314Z,22.38
2022-12-17T18:02:04.464Z,24.25
2022-12-17T18:12:36.271Z,22.98
2022-12-17T18:17:32.633Z,25.10
2022-12-17T18:22:29.373Z,22.40
2022-12-17T18:27:25.769Z,23.17
2022-12-17T18:32:22.145Z,22.83
2022-12-17T18:37:18.631Z,24.20
2022-12-17T18:42:33.634Z,24.38
2022-12-17T18:47:30.580Z,24.58
2022-12-17T18:52:26.943Z,26.33
2022-12-17T18:57:23.334Z,25.70
2022-12-17T19:02:20.314Z,21.88
2022-12-17T19:07:16.817Z,21.30
2022-12-17T19:12:13.236Z,24.02
2022-12-17T19:17:09.857Z,25.85
2022-12-17T19:22:06.750Z,23.73
2022-12-17T19:27:03.199Z,26.77
2022-12-17T19:32:00.173Z,25.23
2022-12-17T19:36:56.645Z,23.05
2022-12-17T19:41:53.485Z,26.55
2022-12-17T19:46:49.836Z,23.95
2022-12-17T19:51:46.243Z,24.70
2022-12-17T19:56:44.260Z,24.83
2022-12-17T20:01:44.402Z,25.43
2022-12-17T20:06:41.210Z,27.48
2022-12-17T20:11:38.115Z,23.90
2022-12-17T20:16:37.550Z,26.52
2022-12-17T20:21:34.378Z,22.45
2022-12-17T20:26:31.170Z,23.60
2022-12-17T20:31:27.810Z,20.17
2022-12-17T20:36:24.318Z,21.75
2022-12-17T20:41:23.996Z,24.15
2022-12-17T20:46:21.685Z,24.55
2022-12-17T20:51:24.134Z,23.08
2022-12-17T20:56:24.573Z,26.30
2022-12-17T21:01:23.429Z,24.30
2022-12-17T21:06:28.763Z,22.25
2022-12-17T21:11:27.543Z,24.35
2022-12-17T21:16:29.764Z,21.65
2022-12-17T21:21:29.355Z,22.85
2022-12-17T21:26:29.199Z,21.25
2022-12-17T21:31:31.374Z,22.13
2022-12-17T21:36:29.787Z,21.17
2022-12-17T21:41:31.339Z,20.52
2022-12-17T21:46:29.137Z,20.88
2022-12-17T21:51:26.488Z,15.80
2022-12-17T21:56:23.829Z,18.60
2022-12-17T22:01:25.308Z,19.95
2022-12-17T22:06:28.121Z,17.75
2022-12-17T22:11:35.821Z,17.58
2022-12-17T22:16:46.614Z,17.27
2022-12-17T22:21:44.546Z,9.77
2022-12-17T22:26:41.554Z,13.07
2022-12-17T22:31:56.672Z,12.55
2022-12-17T22:39:06.287Z,13.23
2022-12-17T22:44:41.939Z,13.82
2022-12-17T22:47:45.702Z,13.27
2022-12-17T22:52:42.073Z,9.00
2022-12-17T22:57:38.919Z,9.95
2022-12-17T23:02:35.423Z,10.07
2022-12-17T23:07:32.240Z,11.23
2022-12-17T23:12:47.355Z,9.38
2022-12-17T23:17:43.755Z,7.45
2022-12-17T23:22:40.169Z,6.90
2022-12-17T23:27:36.882Z,7.38
2022-12-17T23:32:33.321Z,6.97
2022-12-17T23:37:30.549Z,7.35
2022-12-17T23:42:29.264Z,6.97
2022-12-17T23:47:25.620Z,6.85
2022-12-17T23:52:22.004Z,6.78
2022-12-17T23:57:19.572Z,5.65
